createdAt,value
2023-04-25T00:00:00.796Z,98.05
2023-04-25T00:02:29.610Z,98.84
2023-04-25T00:04:59.411Z,98.64
2023-04-25T00:07:27.801Z,99.01
2023-04-25T00:09:55.711Z,98.43
2023-04-25T00:12:23.977Z,98.36
2023-04-25T00:14:52.450Z,98.71
2023-04-25T00:17:20.410Z,98.39
2023-04-25T00:19:48.454Z,99.62
2023-04-25T00:22:16.919Z,99.80
2023-04-25T00:24:44.737Z,99.87
2023-04-25T00:27:12.585Z,99.73
2023-04-25T00:29:40.519Z,100.00
2023-04-25T00:32:08.491Z,99.90
2023-04-25T00:34:37.192Z,100.00
2023-04-25T00:37:05.095Z,100.00
2023-04-25T00:39:33.118Z,99.97
2023-04-25T00:42:03.119Z,100.00
2023-04-25T00:44:33.254Z,100.00
2023-04-25T00:47:03.654Z,100.00
2023-04-25T00:49:31.680Z,100.00
2023-04-25T00:52:00.195Z,100.00
2023-04-25T00:54:28.170Z,100.00
2023-04-25T00:56:56.493Z,100.00
2023-04-25T00:59:25.298Z,100.00
2023-04-25T01:01:53.505Z,100.00
2023-04-25T01:04:22.577Z,100.00
2023-04-25T01:06:50.896Z,100.00
2023-04-25T01:09:20.611Z,100.00
2023-04-25T01:11:48.475Z,100.00
2023-04-25T01:14:16.479Z,100.00
2023-04-25T01:16:45.991Z,100.00
2023-04-25T01:19:18.107Z,100.00
2023-04-25T01:21:48.324Z,100.00
2023-04-25T01:24:17.067Z,100.00
2023-04-25T01:26:50.668Z,100.00
2023-04-25T01:29:24.155Z,100.00
2023-04-25T01:31:53.937Z,100.00
2023-04-25T01:34:22.807Z,100.00
2023-04-25T01:36:51.685Z,100.00
2023-04-25T01:39:19.920Z,100.00
2023-04-25T01:41:48.996Z,100.00
2023-04-25T01:44:17.619Z,100.00
2023-04-25T01:46:45.570Z,100.00
2023-04-25T01:49:13.558Z,99.96
2023-04-25T01:51:42.705Z,100.00
2023-04-25T01:54:12.242Z,100.00
2023-04-25T01:56:41.351Z,99.97
2023-04-25T01:59:11.835Z,100.00
2023-04-25T02:01:58.724Z,99.92
2023-04-25T02:04:29.912Z,99.95
2023-04-25T02:06:58.632Z,99.84
2023-04-25T02:09:33.459Z,99.98
2023-04-25T02:12:05.638Z,100.00
2023-04-25T02:14:46.347Z,100.00
2023-04-25T02:17:47.162Z,100.00
2023-04-25T02:20:17.038Z,100.00
2023-04-25T02:22:44.868Z,99.97
2023-04-25T02:25:13.340Z,99.97
2023-04-25T02:27:41.251Z,100.00
2023-04-25T02:30:09.767Z,100.00
2023-04-25T02:32:39.526Z,100.00
2023-04-25T02:35:08.135Z,100.00
2023-04-25T02:37:37.615Z,100.00
2023-04-25T02:40:06.787Z,100.00
2023-04-25T02:42:35.066Z,100.00
2023-04-25T02:45:03.772Z,100.00
2023-04-25T02:47:31.821Z,100.00
2023-04-25T02:50:00.267Z,100.00
2023-04-25T02:52:28.499Z,100.00
2023-04-25T02:55:01.383Z,100.00
2023-04-25T02:57:30.555Z,100.00
2023-04-25T02:59:58.692Z,100.00
2023-04-25T03:02:26.642Z,100.00
2023-04-25T03:04:55.069Z,100.00
2023-04-25T03:07:22.923Z,100.00
2023-04-25T03:09:50.907Z,100.00
2023-04-25T03:12:18.974Z,100.00
2023-04-25T03:14:46.825Z,100.00
2023-04-25T03:17:14.829Z,100.00
2023-04-25T03:19:42.821Z,100.00
2023-04-25T03:22:10.878Z,100.00
2023-04-25T03:24:38.905Z,100.00
2023-04-25T03:27:06.872Z,100.00
2023-04-25T03:29:34.997Z,100.00
2023-04-25T03:32:05.037Z,100.00
2023-04-25T03:34:33.155Z,100.00
2023-04-25T03:37:01.785Z,100.00
2023-04-25T03:39:30.959Z,100.00
2023-04-25T03:41:59.078Z,100.00
2023-04-25T03:44:26.971Z,100.00
2023-04-25T03:46:54.850Z,100.00
2023-04-25T03:49:24.020Z,100.00
2023-04-25T03:52:12.206Z,100.00
2023-04-25T03:54:41.182Z,100.00
2023-04-25T03:57:15.753Z,100.00
2023-04-25T03:59:44.274Z,100.00
2023-04-25T04:02:14.052Z,100.00
2023-04-25T04:04:45.438Z,100.00
2023-04-25T04:07:34.811Z,100.00
2023-04-25T04:10:18.330Z,100.00
2023-04-25T04:13:33.592Z,100.00
2023-04-25T04:16:59.183Z,100.00
2023-04-25T04:20:37.842Z,100.00
2023-04-25T04:26:59.299Z,100.00
2023-04-25T04:31:09.408Z,100.00
2023-04-25T04:41:57.614Z,100.00
2023-04-25T04:45:46.941Z,100.00
2023-04-25T04:57:38.078Z,100.00
2023-04-25T05:01:29.346Z,100.00
2023-04-25T05:04:56.469Z,100.00
2023-04-25T05:19:17.559Z,100.00
2023-04-25T05:23:06.594Z,100.00
2023-04-25T05:35:11.833Z,98.37
2023-04-25T05:46:09.593Z,96.04
2023-04-25T05:49:24.290Z,96.85
2023-04-25T05:53:01.724Z,95.93
2023-04-25T05:56:53.784Z,95.58
2023-04-25T06:09:50.711Z,92.32
2023-04-25T06:13:39.676Z,90.56
2023-04-25T06:17:34.700Z,90.58
2023-04-25T06:24:49.241Z,88.56
2023-04-25T06:28:13.292Z,88.66
2023-04-25T06:31:38.172Z,89.62
2023-04-25T06:35:01.986Z,86.84
2023-04-25T06:38:21.958Z,87.89
2023-04-25T06:53:12.634Z,83.12
2023-04-25T06:56:35.176Z,84.38
2023-04-25T07:00:24.975Z,82.44
2023-04-25T07:11:35.240Z,80.74
2023-04-25T07:15:05.922Z,80.55
2023-04-25T07:18:45.084Z,81.02
2023-04-25T07:29:06.882Z,77.53
2023-04-25T07:32:55.960Z,77.84
2023-04-25T07:36:45.080Z,78.75
2023-04-25T07:47:54.464Z,77.81
2023-04-25T07:51:43.570Z,77.52
2023-04-25T08:02:38.600Z,75.08
2023-04-25T08:06:27.973Z,74.97
2023-04-25T08:27:00.197Z,71.77
2023-04-25T08:30:26.728Z,72.36
2023-04-25T08:34:07.419Z,72.44
2023-04-25T08:42:14.459Z,73.02
2023-04-25T08:53:46.992Z,70.12
2023-04-25T08:57:35.873Z,69.19
2023-04-25T09:01:21.631Z,68.52
2023-04-25T09:12:47.580Z,67.55
2023-04-25T09:16:37.657Z,66.94
2023-04-25T09:28:32.033Z,63.66
2023-04-25T09:44:02.071Z,64.77
2023-04-25T09:47:35.112Z,65.85
2023-04-25T09:51:08.966Z,65.46
2023-04-25T10:05:47.152Z,65.54
2023-04-25T10:09:36.123Z,65.76
2023-04-25T10:13:02.897Z,65.92
2023-04-25T10:16:32.070Z,66.19
2023-04-25T10:27:53.126Z,64.67
2023-04-25T10:31:35.541Z,64.89
2023-04-25T10:43:22.950Z,61.26
2023-04-25T10:54:59.469Z,61.66
2023-04-25T11:06:18.547Z,63.35
2023-04-25T11:09:52.822Z,63.60
2023-04-25T11:13:20.272Z,64.22
2023-04-25T11:20:19.653Z,64.00
2023-04-25T11:24:08.673Z,64.08
2023-04-25T11:27:47.170Z,64.29
2023-04-25T11:38:35.492Z,61.60
2023-04-25T11:42:20.704Z,61.94
2023-04-25T11:52:47.537Z,62.22
2023-04-25T11:55:41.203Z,62.35
2023-04-25T11:59:45.204Z,63.05
2023-04-25T12:03:08.986Z,63.79
2023-04-25T12:06:44.217Z,67.23
2023-04-25T12:17:06.336Z,72.96
2023-04-25T12:20:55.402Z,72.69
2023-04-25T12:24:29.515Z,72.07
2023-04-25T12:35:27.841Z,67.21
2023-04-25T12:39:25.993Z,65.61
2023-04-25T12:51:01.283Z,66.50
2023-04-25T13:02:11.830Z,74.57
2023-04-25T13:05:56.711Z,73.84
2023-04-25T13:24:07.228Z,69.51
2023-04-25T13:27:36.191Z,68.38
2023-04-25T13:31:15.556Z,66.94
2023-04-25T13:42:58.496Z,66.76
2023-04-25T13:54:06.058Z,71.21
2023-04-25T13:57:30.047Z,77.40
2023-04-25T14:04:53.180Z,85.17
2023-04-25T14:08:10.993Z,81.72
2023-04-25T14:11:23.270Z,82.54
2023-04-25T14:14:46.414Z,80.70
2023-04-25T14:17:53.995Z,79.01
2023-04-25T14:20:35.885Z,79.09
2023-04-25T14:24:03.897Z,77.00
2023-04-25T14:37:22.184Z,75.20
2023-04-25T14:40:51.238Z,75.93
2023-04-25T14:44:16.357Z,75.72
2023-04-25T14:54:46.922Z,80.11
2023-04-25T14:58:01.050Z,79.49
2023-04-25T15:08:38.814Z,79.31
2023-04-25T15:12:21.978Z,79.36
2023-04-25T15:16:11.059Z,77.93
2023-04-25T15:33:15.776Z,76.92
2023-04-25T15:36:37.337Z,75.48
2023-04-25T15:47:02.845Z,71.84
2023-04-25T15:50:37.072Z,71.96
2023-04-25T15:54:14.872Z,71.88
2023-04-25T15:57:54.247Z,72.89
2023-04-25T16:08:40.419Z,76.48
2023-04-25T16:11:49.654Z,76.89
2023-04-25T16:15:27.308Z,76.15
2023-04-25T16:18:54.929Z,76.09
2023-04-25T16:22:05.834Z,76.86
2023-04-25T16:25:23.408Z,77.33
2023-04-25T16:42:04.694Z,70.97
2023-04-25T16:45:20.819Z,68.68
2023-04-25T16:48:20.802Z,68.88
2023-04-25T16:51:59.980Z,67.90
2023-04-25T17:09:12.055Z,62.84
2023-04-25T17:12:09.846Z,62.25
2023-04-25T17:15:07.288Z,60.90
2023-04-25T17:17:49.947Z,59.13
2023-04-25T17:20:44.195Z,58.38
2023-04-25T17:24:18.219Z,56.18
2023-04-25T17:34:23.489Z,56.45
2023-04-25T17:37:36.708Z,58.20
2023-04-25T17:41:19.476Z,59.88
2023-04-25T17:52:10.132Z,62.95
2023-04-25T17:55:39.254Z,63.83
2023-04-25T18:10:12.529Z,67.24
2023-04-25T18:13:53.433Z,67.47
2023-04-25T18:17:30.621Z,68.07
2023-04-25T18:31:26.426Z,68.38
2023-04-25T18:35:17.996Z,68.37
2023-04-25T18:43:27.614Z,68.70
2023-04-25T19:06:07.292Z,70.13
2023-04-25T19:09:56.338Z,70.45
2023-04-25T19:13:17.524Z,71.11
2023-04-25T19:19:12.517Z,71.23
2023-04-25T19:22:37.084Z,71.78
2023-04-25T19:30:13.549Z,72.51
2023-04-25T19:34:02.823Z,72.75
2023-04-25T19:40:24.127Z,72.85
2023-04-25T19:43:55.455Z,72.82
2023-04-25T20:01:55.326Z,72.99
2023-04-25T20:05:20.672Z,72.97
2023-04-25T20:08:24.745Z,73.05
2023-04-25T20:12:03.635Z,73.84
2023-04-25T20:14:56.739Z,73.60
2023-04-25T20:26:04.848Z,73.97
2023-04-25T20:28:38.052Z,74.04
2023-04-25T20:31:54.044Z,73.98
2023-04-25T20:35:43.060Z,73.67
2023-04-25T20:46:09.714Z,73.82
2023-04-25T20:49:24.183Z,74.05
2023-04-25T20:52:18.896Z,74.03
2023-04-25T20:55:41.597Z,74.04
2023-04-25T20:58:44.066Z,73.75
2023-04-25T21:01:47.353Z,73.64
2023-04-25T21:21:05.343Z,73.37
2023-04-25T21:23:48.638Z,73.39
2023-04-25T21:27:13.272Z,73.52
2023-04-25T21:29:57.977Z,73.77
2023-04-25T21:33:17.695Z,73.85
2023-04-25T21:36:37.829Z,73.56
2023-04-25T21:39:52.576Z,73.87
2023-04-25T21:43:39.770Z,74.08
2023-04-25T21:54:38.791Z,74.25
2023-04-25T21:57:55.219Z,74.37
2023-04-25T22:00:59.857Z,74.51
2023-04-25T22:04:34.044Z,74.72
2023-04-25T22:07:30.591Z,75.08
2023-04-25T22:11:07.460Z,74.95
2023-04-25T22:13:54.936Z,74.61
2023-04-25T22:16:47.121Z,74.58
2023-04-25T22:24:09.580Z,74.58
2023-04-25T22:27:34.344Z,74.61
2023-04-25T22:30:47.754Z,74.59
2023-04-25T22:44:41.206Z,75.56
2023-04-25T22:47:43.219Z,75.70
2023-04-25T22:50:38.385Z,75.92
2023-04-25T22:54:10.665Z,76.41
2023-04-25T23:05:34.233Z,76.09
2023-04-25T23:09:04.728Z,75.93
2023-04-25T23:12:05.951Z,76.20
2023-04-25T23:14:55.413Z,76.97
2023-04-25T23:22:10.992Z,77.18
2023-04-25T23:25:34.579Z,77.47
2023-04-25T23:40:28.702Z,78.47
2023-04-25T23:44:27.205Z,79.84
2023-04-25T23:52:05.534Z,79.08
2023-04-25T23:55:58.909Z,80.06
